Main page
METAR-TAF:

METAR-TAF

Airports :

Al-Hasa, Saudi Arabia

Al-Ahsa International Airport

latitude: 25-18N, longitude: 049-29E, elevation: 179 m

Current weather observation

The report was made 1 hour and 2 minutes ago, at 01:00 UTC
Wind 6 kt from the North/Northwest
Temperature 30°C
Humidity 13%
Pressure 996 hPa
Visibility 10 km or more
no clouds below 1500 m and no cumulonimbus

METAR: OEAH 290100Z 33006KT CAVOK 30/M01 Q0996 NOSIG

Time: 05:02 (02:02 UTC)

Forecast

The report was made 3 hours and 2 minutes ago, at 23:00 UTC
Forecast valid from 29 at 00 UTC to 30 at 06 UTC
Wind 6 kt from the West
Visibility: 7000 m
Clear sky
Becoming
from 29 at 06 UTC to 29 at 08 UTC
Wind 6 kt from the Northeast with gusts up to 16 kt

TAF: OEAH 282300Z 2900/3006 26006KT 7000 SKC BECMG 2906/2908 04006G16KT

Weather observations and forecasts of more than 4000 airports (METAR and TAF reports).

The available stations are represented by yellow and red dots on the map.

Hover mouse over dot to see the name of the station.

Then click to see weather observations and forecasts.

To change the map : click on the green buttons with a black cross to zoom in, on the green button with a dash to zoom out, or on the green arrows for adjacent maps.


METAR-TAF: